createdAt,value
2018-11-29T00:15:32.796Z,19.30
2018-11-29T00:18:01.043Z,19.30
2018-11-29T00:20:29.513Z,19.30
2018-11-29T00:22:58.052Z,19.20
2018-11-29T00:25:26.676Z,19.20
2018-11-29T00:27:55.470Z,19.40
2018-11-29T00:30:24.842Z,19.40
2018-11-29T00:32:53.916Z,19.40
2018-11-29T00:35:22.554Z,19.40
2018-11-29T00:37:51.188Z,19.40
2018-11-29T00:40:23.393Z,19.30
2018-11-29T00:42:52.807Z,19.40
2018-11-29T00:45:22.215Z,19.30
2018-11-29T00:47:51.312Z,19.40
2018-11-29T00:50:19.998Z,19.30
2018-11-29T00:52:49.073Z,19.30
2018-11-29T00:55:20.136Z,19.30
2018-11-29T00:57:48.604Z,19.30
2018-11-29T01:00:19.549Z,19.30
2018-11-29T01:02:48.082Z,19.30
2018-11-29T01:05:16.524Z,19.40
2018-11-29T01:07:45.073Z,19.40
2018-11-29T01:10:14.000Z,19.40
2018-11-29T01:29:58.654Z,19.60
2018-11-29T01:32:26.986Z,19.60
2018-11-29T01:34:55.611Z,19.60
2018-11-29T01:37:24.106Z,19.50
2018-11-29T01:39:52.606Z,19.50
2018-11-29T01:42:21.043Z,19.50
2018-11-29T01:44:49.949Z,19.50
2018-11-29T01:47:18.241Z,19.50
2018-11-29T01:49:47.108Z,19.60
2018-11-29T01:52:16.216Z,19.60
2018-11-29T01:54:44.725Z,19.60
2018-11-29T01:57:13.160Z,19.50
2018-11-29T01:59:41.672Z,19.50
2018-11-29T02:02:11.178Z,19.50
2018-11-29T02:04:39.861Z,19.50
2018-11-29T02:07:08.404Z,19.40
2018-11-29T02:09:36.641Z,19.40
2018-11-29T02:12:05.297Z,19.40
2018-11-29T02:14:33.752Z,19.40
2018-11-29T02:17:02.116Z,19.40
2018-11-29T02:19:30.517Z,19.40
2018-11-29T02:21:59.102Z,19.40
2018-11-29T02:24:27.527Z,19.40
2018-11-29T02:26:55.772Z,19.40
2018-11-29T02:29:24.270Z,19.40
2018-11-29T02:31:52.941Z,19.40
2018-11-29T02:34:21.205Z,19.60
2018-11-29T02:36:49.699Z,19.60
2018-11-29T02:39:18.244Z,19.60
2018-11-29T02:41:46.633Z,19.60
2018-11-29T02:44:14.934Z,19.60
2018-11-29T02:46:43.923Z,19.50
2018-11-29T02:49:12.389Z,19.50
2018-11-29T02:51:40.705Z,19.50
2018-11-29T02:54:09.285Z,19.50
2018-11-29T02:56:37.515Z,19.60
2018-11-29T02:59:06.161Z,19.50
2018-11-29T03:01:34.679Z,19.50
2018-11-29T03:04:02.982Z,19.50
2018-11-29T03:06:31.444Z,19.50
2018-11-29T03:09:00.002Z,19.50
2018-11-29T03:11:28.358Z,19.50
2018-11-29T03:13:56.826Z,19.60
2018-11-29T03:16:25.635Z,19.60
2018-11-29T03:18:53.852Z,19.60
2018-11-29T03:21:22.335Z,19.60
2018-11-29T03:23:50.760Z,19.60
2018-11-29T03:26:19.302Z,19.60
2018-11-29T03:28:47.763Z,19.60
2018-11-29T03:31:16.361Z,19.60
2018-11-29T03:33:44.724Z,19.60
2018-11-29T03:36:13.231Z,19.50
2018-11-29T03:38:41.951Z,19.50
2018-11-29T03:41:10.398Z,19.50
2018-11-29T03:43:38.962Z,19.40
2018-11-29T03:46:07.402Z,19.40
2018-11-29T03:48:36.094Z,19.40
2018-11-29T03:51:04.917Z,19.40
2018-11-29T03:53:33.466Z,19.30
2018-11-29T03:56:01.877Z,19.30
2018-11-29T03:58:30.373Z,19.30
2018-11-29T04:00:58.894Z,19.30
2018-11-29T04:03:27.327Z,19.30
2018-11-29T04:05:56.016Z,19.30
2018-11-29T04:08:24.350Z,19.30
2018-11-29T04:10:52.768Z,19.30
2018-11-29T04:13:21.254Z,19.30
2018-11-29T04:15:49.769Z,19.30
2018-11-29T04:18:18.464Z,19.30
2018-11-29T04:20:46.898Z,19.30
2018-11-29T04:23:15.623Z,19.30
2018-11-29T04:25:44.053Z,19.30
2018-11-29T04:28:12.540Z,19.30
2018-11-29T04:30:41.069Z,19.20
2018-11-29T04:33:09.804Z,19.30
2018-11-29T04:35:38.084Z,19.30
2018-11-29T04:38:06.744Z,19.30
2018-11-29T04:40:35.163Z,19.30
2018-11-29T04:43:03.446Z,19.30
2018-11-29T04:45:43.071Z,19.30
2018-11-29T04:48:11.376Z,19.40
2018-11-29T04:50:40.842Z,19.30
2018-11-29T04:53:09.257Z,19.30
2018-11-29T04:55:37.707Z,19.30
2018-11-29T04:58:06.029Z,19.30
2018-11-29T05:00:34.337Z,19.30
2018-11-29T05:03:02.801Z,19.40
2018-11-29T05:05:31.033Z,19.40
2018-11-29T05:07:59.228Z,19.40
2018-11-29T05:10:28.473Z,19.50
2018-11-29T05:12:56.873Z,20.00
2018-11-29T05:15:25.595Z,19.30
2018-11-29T05:17:53.919Z,19.30
2018-11-29T05:20:22.409Z,19.20
2018-11-29T05:22:50.827Z,19.10
2018-11-29T05:25:19.303Z,19.10
2018-11-29T05:27:47.739Z,19.00
2018-11-29T05:30:16.053Z,19.00
2018-11-29T05:32:44.295Z,19.00
2018-11-29T05:35:12.783Z,19.00
2018-11-29T05:37:41.513Z,18.90
2018-11-29T05:40:11.014Z,18.90
2018-11-29T05:42:39.439Z,18.90
2018-11-29T05:45:08.743Z,18.90
2018-11-29T05:47:37.241Z,18.90
2018-11-29T05:50:07.657Z,18.90
2018-11-29T05:52:37.427Z,18.80
2018-11-29T05:55:07.384Z,18.80
2018-11-29T05:57:36.378Z,18.90
2018-11-29T06:00:05.379Z,18.80
2018-11-29T06:02:33.652Z,18.80
2018-11-29T06:05:02.129Z,18.80
2018-11-29T06:07:30.859Z,18.80
2018-11-29T06:09:59.306Z,18.80
2018-11-29T06:12:28.081Z,18.80
2018-11-29T06:14:56.508Z,18.70
2018-11-29T06:17:24.939Z,18.70
2018-11-29T06:19:53.441Z,18.70
2018-11-29T06:22:21.746Z,18.70
2018-11-29T06:24:50.179Z,18.80
2018-11-29T06:27:18.816Z,18.70
2018-11-29T06:29:47.401Z,18.70
2018-11-29T06:32:15.810Z,18.60
2018-11-29T06:34:44.411Z,18.60
2018-11-29T06:37:12.837Z,18.50
2018-11-29T06:39:41.178Z,18.50
2018-11-29T06:42:09.568Z,18.40
2018-11-29T06:44:38.104Z,18.40
2018-11-29T06:47:06.522Z,18.30
2018-11-29T06:49:35.208Z,18.30
2018-11-29T06:52:03.581Z,18.30
2018-11-29T06:54:33.007Z,18.20
2018-11-29T06:57:01.270Z,18.20
2018-11-29T06:59:29.803Z,18.20
2018-11-29T07:01:58.038Z,18.10
2018-11-29T07:04:26.708Z,18.10
2018-11-29T07:06:55.224Z,18.00
2018-11-29T07:09:23.546Z,18.00
2018-11-29T07:11:51.734Z,18.00
2018-11-29T07:14:20.071Z,18.00
2018-11-29T07:16:48.526Z,17.90
2018-11-29T07:19:16.958Z,17.90
2018-11-29T07:21:50.830Z,17.90
2018-11-29T07:24:19.044Z,17.90
2018-11-29T07:26:47.557Z,17.90
2018-11-29T07:29:17.073Z,17.80
2018-11-29T07:31:44.474Z,17.80
2018-11-29T07:34:12.894Z,17.80
2018-11-29T07:36:41.258Z,17.80
2018-11-29T07:39:09.990Z,18.30
2018-11-29T07:41:38.880Z,17.70
2018-11-29T07:44:08.774Z,17.70
2018-11-29T07:46:37.202Z,17.70
2018-11-29T07:49:05.688Z,17.60
2018-11-29T07:51:34.220Z,17.60
2018-11-29T07:54:02.660Z,17.60
2018-11-29T07:56:31.385Z,17.60
2018-11-29T07:58:59.812Z,17.50
2018-11-29T08:01:28.513Z,17.50
2018-11-29T08:03:57.025Z,17.50
2018-11-29T08:06:25.614Z,17.50
2018-11-29T08:08:53.965Z,17.50
2018-11-29T08:11:22.734Z,17.50
2018-11-29T08:13:50.962Z,17.40
2018-11-29T08:16:19.413Z,17.50
2018-11-29T08:18:47.678Z,17.50
2018-11-29T08:21:16.058Z,17.50
2018-11-29T08:23:44.429Z,17.60
2018-11-29T08:26:12.899Z,17.60
2018-11-29T08:45:58.256Z,17.70
2018-11-29T08:48:26.663Z,17.60
2018-11-29T08:50:55.348Z,18.30
2018-11-29T08:53:23.780Z,17.70
2018-11-29T08:55:52.460Z,17.70
2018-11-29T08:58:21.408Z,17.70
2018-11-29T09:00:50.250Z,17.70
2018-11-29T09:03:18.988Z,17.60
2018-11-29T09:05:47.621Z,17.60
2018-11-29T09:08:16.109Z,17.60
2018-11-29T09:28:01.717Z,17.50
2018-11-29T09:30:30.344Z,17.60
2018-11-29T09:32:59.113Z,17.60
2018-11-29T09:35:27.821Z,17.50
2018-11-29T09:37:56.211Z,17.50
2018-11-29T09:40:24.760Z,18.10
2018-11-29T09:42:53.187Z,17.40
2018-11-29T09:45:22.448Z,17.40
2018-11-29T09:47:54.422Z,17.40
2018-11-29T09:50:23.951Z,17.40
2018-11-29T09:52:52.380Z,17.30
2018-11-29T09:55:21.124Z,17.30
2018-11-29T09:57:50.147Z,17.90
2018-11-29T10:00:27.770Z,17.20
2018-11-29T10:03:05.462Z,17.20
2018-11-29T10:05:34.093Z,17.20
2018-11-29T10:08:03.710Z,17.20
2018-11-29T10:10:32.252Z,17.10
2018-11-29T10:13:00.610Z,17.10
2018-11-29T10:15:29.004Z,17.10
2018-11-29T10:17:57.464Z,17.10
2018-11-29T10:20:25.795Z,17.00
2018-11-29T10:22:54.044Z,17.00
2018-11-29T10:25:22.299Z,17.00
2018-11-29T10:27:54.316Z,17.00
2018-11-29T10:30:29.270Z,16.90
2018-11-29T10:32:57.828Z,16.90
2018-11-29T10:35:26.077Z,16.90
2018-11-29T10:37:54.554Z,16.90
2018-11-29T10:40:23.071Z,16.90
2018-11-29T10:42:51.755Z,16.90
2018-11-29T10:45:20.353Z,16.90
2018-11-29T10:47:52.406Z,16.90
2018-11-29T10:50:18.731Z,16.80
2018-11-29T10:52:47.490Z,16.80
2018-11-29T10:55:16.661Z,16.70
2018-11-29T10:57:44.992Z,16.80
2018-11-29T11:00:28.285Z,16.80
2018-11-29T11:03:04.820Z,16.90
2018-11-29T11:05:33.322Z,16.80
2018-11-29T11:08:07.908Z,16.80
2018-11-29T11:10:30.195Z,16.80
2018-11-29T11:12:59.171Z,16.70
2018-11-29T11:15:27.355Z,16.70
2018-11-29T11:17:56.032Z,16.70
2018-11-29T11:20:24.335Z,16.70
2018-11-29T11:22:52.596Z,16.70
2018-11-29T11:25:20.846Z,16.70
2018-11-29T11:27:49.193Z,16.70
2018-11-29T11:30:19.368Z,16.70
2018-11-29T11:32:48.795Z,16.70
2018-11-29T11:35:17.241Z,16.70
2018-11-29T11:37:45.821Z,16.70
2018-11-29T11:40:14.931Z,16.70
2018-11-29T11:42:43.563Z,16.70
2018-11-29T11:45:16.791Z,16.70
2018-11-29T11:47:45.185Z,16.70
2018-11-29T11:50:17.237Z,16.70
2018-11-29T11:52:45.812Z,16.70
2018-11-29T11:55:18.870Z,16.60
2018-11-29T11:57:43.293Z,16.60
2018-11-29T12:00:17.766Z,16.60
2018-11-29T12:02:46.997Z,16.60
2018-11-29T12:05:15.593Z,16.60
2018-11-29T12:07:43.989Z,16.60
2018-11-29T12:10:13.397Z,16.60
2018-11-29T12:12:41.964Z,16.60
2018-11-29T12:15:13.018Z,16.60
2018-11-29T12:17:41.958Z,16.50
2018-11-29T12:20:16.991Z,16.50
2018-11-29T12:22:45.315Z,16.50
2018-11-29T12:25:16.424Z,17.10
2018-11-29T12:27:45.188Z,16.50
2018-11-29T12:30:20.113Z,16.40
2018-11-29T12:32:48.722Z,16.40
2018-11-29T12:35:17.344Z,16.40
2018-11-29T12:37:45.625Z,16.50
2018-11-29T12:40:14.804Z,16.50
2018-11-29T12:42:42.967Z,16.50
2018-11-29T12:45:12.027Z,16.50
2018-11-29T12:47:40.555Z,16.50
2018-11-29T12:50:11.692Z,17.00
2018-11-29T12:52:40.488Z,16.50
2018-11-29T12:55:09.520Z,16.50
2018-11-29T12:57:37.955Z,16.60
2018-11-29T13:00:10.100Z,16.60
2018-11-29T13:02:40.812Z,16.60
2018-11-29T13:05:08.633Z,16.60
2018-11-29T13:07:37.051Z,16.70
2018-11-29T13:10:06.201Z,16.80
2018-11-29T13:12:34.705Z,16.80
2018-11-29T13:15:03.477Z,16.80
2018-11-29T13:17:32.051Z,16.90
2018-11-29T13:20:00.223Z,16.90
2018-11-29T13:22:28.756Z,16.90
2018-11-29T13:24:56.979Z,16.90
2018-11-29T13:27:25.564Z,16.90
2018-11-29T13:29:53.781Z,17.00
2018-11-29T13:32:22.217Z,17.00
2018-11-29T13:34:50.708Z,17.00
2018-11-29T13:37:19.285Z,17.00
2018-11-29T13:39:47.445Z,17.00
2018-11-29T13:42:15.973Z,17.00
2018-11-29T13:44:44.432Z,17.00
2018-11-29T13:47:12.886Z,17.00
2018-11-29T13:49:42.127Z,17.00
2018-11-29T13:52:11.068Z,16.90
2018-11-29T13:54:39.578Z,16.90
2018-11-29T13:57:08.051Z,16.90
2018-11-29T13:59:36.501Z,16.90
2018-11-29T14:02:04.830Z,16.90
2018-11-29T14:04:33.820Z,16.90
2018-11-29T14:07:02.611Z,16.90
2018-11-29T14:09:31.077Z,17.20
2018-11-29T14:11:59.602Z,16.80
2018-11-29T14:14:27.839Z,16.80
2018-11-29T14:16:56.315Z,16.80
2018-11-29T14:19:24.861Z,16.70
2018-11-29T14:21:53.526Z,16.80
2018-11-29T14:24:22.349Z,16.80
2018-11-29T14:26:50.904Z,16.90
2018-11-29T14:29:19.331Z,16.90
2018-11-29T14:31:47.800Z,16.90
2018-11-29T14:34:16.376Z,16.90
2018-11-29T14:36:44.762Z,16.90
2018-11-29T14:39:13.455Z,16.80
2018-11-29T14:41:42.000Z,16.80
2018-11-29T14:44:10.254Z,16.80
2018-11-29T14:46:38.590Z,16.80
2018-11-29T14:49:06.807Z,17.40
2018-11-29T14:51:35.951Z,16.80
2018-11-29T14:54:04.606Z,16.80
2018-11-29T14:56:33.091Z,16.80
2018-11-29T14:59:02.221Z,16.90
2018-11-29T15:01:30.906Z,17.00
2018-11-29T15:03:59.336Z,17.10
2018-11-29T15:06:28.245Z,17.10
2018-11-29T15:08:56.465Z,17.70
2018-11-29T15:11:29.268Z,17.10
2018-11-29T15:13:53.420Z,17.20
2018-11-29T15:16:21.902Z,17.20
2018-11-29T15:18:50.631Z,17.20
2018-11-29T15:21:19.495Z,17.20
2018-11-29T15:23:47.753Z,17.20
2018-11-29T15:26:16.174Z,17.20
2018-11-29T15:28:45.652Z,17.20
2018-11-29T15:31:14.212Z,17.20
2018-11-29T15:33:42.531Z,17.80
2018-11-29T15:36:10.809Z,17.10
2018-11-29T15:38:39.244Z,17.20
2018-11-29T15:41:08.306Z,17.20
2018-11-29T15:43:37.133Z,17.20
2018-11-29T15:46:05.936Z,17.20
2018-11-29T15:48:34.423Z,17.20
2018-11-29T15:51:03.089Z,17.20
2018-11-29T15:53:31.599Z,17.20
2018-11-29T15:56:00.082Z,17.20
2018-11-29T15:58:28.546Z,17.10
2018-11-29T16:00:56.903Z,17.10
2018-11-29T16:03:26.392Z,17.10
2018-11-29T16:05:53.570Z,17.10
2018-11-29T16:08:22.528Z,17.10
2018-11-29T16:10:50.840Z,17.10
2018-11-29T16:13:19.480Z,17.10
2018-11-29T16:15:47.777Z,17.10
2018-11-29T16:18:16.001Z,17.10
2018-11-29T16:20:44.548Z,17.20
2018-11-29T16:23:13.193Z,17.30
2018-11-29T16:25:41.832Z,17.30
2018-11-29T16:28:10.183Z,17.30
2018-11-29T16:30:45.157Z,17.30
2018-11-29T16:33:16.575Z,17.40
2018-11-29T16:35:44.952Z,17.40
2018-11-29T16:38:13.457Z,17.40
2018-11-29T16:40:43.128Z,17.40
2018-11-29T16:43:11.623Z,17.80
2018-11-29T16:45:40.103Z,17.90
2018-11-29T16:48:08.380Z,18.60
2018-11-29T16:50:38.395Z,19.30
2018-11-29T16:53:15.551Z,19.30
2018-11-29T16:55:52.043Z,19.40
2018-11-29T16:58:23.898Z,19.50
2018-11-29T17:00:59.722Z,19.60
2018-11-29T17:03:28.133Z,19.80
2018-11-29T17:05:56.929Z,20.20
2018-11-29T17:08:25.164Z,20.60
2018-11-29T17:10:53.470Z,20.80
2018-11-29T17:13:21.962Z,20.80
2018-11-29T17:15:50.330Z,20.80
2018-11-29T17:18:18.791Z,20.90
2018-11-29T17:20:47.093Z,20.90
2018-11-29T17:23:15.405Z,21.00
2018-11-29T17:25:44.145Z,21.00
2018-11-29T17:28:12.345Z,20.90
2018-11-29T17:30:40.797Z,20.90
2018-11-29T17:33:09.384Z,21.00
2018-11-29T17:35:37.878Z,21.00
2018-11-29T17:38:06.561Z,21.10
2018-11-29T17:40:37.450Z,21.00
2018-11-29T17:43:08.996Z,20.90
2018-11-29T17:45:40.828Z,20.90
2018-11-29T17:48:10.653Z,20.90
2018-11-29T17:50:40.287Z,20.80
2018-11-29T17:53:08.931Z,20.80
2018-11-29T17:55:37.388Z,20.80
2018-11-29T17:58:08.850Z,20.70
2018-11-29T18:00:37.187Z,20.70
2018-11-29T18:03:06.170Z,20.70
2018-11-29T18:05:35.079Z,20.60
2018-11-29T18:08:03.543Z,20.50
2018-11-29T18:10:34.729Z,20.50
2018-11-29T18:13:21.598Z,20.40
2018-11-29T18:15:51.118Z,20.40
2018-11-29T18:18:19.391Z,20.60
2018-11-29T18:20:47.954Z,20.80
2018-11-29T18:23:16.244Z,20.90
2018-11-29T18:25:44.768Z,21.00
2018-11-29T18:28:13.157Z,21.00
2018-11-29T18:30:41.498Z,21.10
2018-11-29T18:33:10.123Z,21.10
2018-11-29T18:35:38.585Z,21.10
2018-11-29T18:38:07.446Z,21.00
2018-11-29T18:40:36.162Z,21.10
2018-11-29T18:43:05.563Z,20.90
2018-11-29T18:45:33.981Z,20.90
2018-11-29T18:48:02.308Z,20.90
2018-11-29T18:50:30.597Z,20.90
2018-11-29T18:52:58.843Z,20.90
2018-11-29T18:55:27.131Z,20.90
2018-11-29T18:57:56.448Z,20.90
2018-11-29T19:00:26.545Z,20.90
2018-11-29T19:02:59.410Z,20.80
2018-11-29T19:05:28.067Z,20.80
2018-11-29T19:07:56.575Z,20.70
2018-11-29T19:10:25.038Z,21.40
2018-11-29T19:12:57.570Z,20.70
2018-11-29T19:15:25.759Z,20.70
2018-11-29T19:17:54.329Z,20.60
2018-11-29T19:20:22.546Z,20.80
2018-11-29T19:22:50.773Z,20.60
2018-11-29T19:25:19.626Z,20.50
2018-11-29T19:27:48.154Z,20.50
2018-11-29T19:30:23.473Z,20.50
2018-11-29T19:33:17.120Z,20.40
2018-11-29T19:35:41.201Z,20.30
2018-11-29T19:38:09.534Z,20.30
2018-11-29T19:40:38.308Z,20.30
2018-11-29T19:43:07.312Z,20.30
2018-11-29T19:45:36.296Z,20.20
2018-11-29T19:48:04.975Z,20.10
2018-11-29T19:50:33.532Z,20.10
2018-11-29T19:53:01.994Z,20.10
2018-11-29T19:55:32.239Z,20.10
2018-11-29T19:58:00.641Z,20.10
2018-11-29T20:00:29.160Z,20.00
2018-11-29T20:02:57.529Z,19.90
2018-11-29T20:05:26.189Z,19.90
2018-11-29T20:07:55.641Z,19.90
2018-11-29T20:10:24.492Z,19.90
2018-11-29T20:12:59.596Z,19.70
2018-11-29T20:15:27.957Z,19.80
2018-11-29T20:17:56.384Z,20.00
2018-11-29T20:20:25.015Z,20.00
2018-11-29T20:22:53.448Z,20.10
2018-11-29T20:25:23.307Z,20.10
2018-11-29T20:27:52.175Z,20.10
2018-11-29T20:30:21.923Z,20.10
2018-11-29T20:32:52.018Z,20.10
2018-11-29T20:35:20.578Z,20.10
2018-11-29T20:37:49.695Z,20.80
2018-11-29T20:40:28.568Z,21.20
2018-11-29T20:42:58.117Z,21.40
2018-11-29T20:45:33.895Z,21.50
2018-11-29T20:48:06.652Z,21.60
2018-11-29T20:50:35.747Z,21.50
2018-11-29T20:53:03.467Z,21.30
2018-11-29T20:55:32.193Z,21.20
2018-11-29T20:58:00.686Z,21.10
2018-11-29T21:00:29.830Z,21.00
2018-11-29T21:02:58.511Z,21.00
2018-11-29T21:05:26.702Z,20.90
2018-11-29T21:07:56.894Z,20.90
2018-11-29T21:10:25.320Z,20.90
2018-11-29T21:12:53.764Z,20.90
2018-11-29T21:15:21.985Z,20.90
2018-11-29T21:17:50.887Z,21.80
2018-11-29T21:20:20.389Z,22.00
2018-11-29T21:22:49.741Z,22.40
2018-11-29T21:25:20.435Z,22.30
2018-11-29T21:27:48.880Z,22.10
2018-11-29T21:30:17.482Z,21.90
2018-11-29T21:32:45.945Z,21.70
2018-11-29T21:35:15.087Z,21.60
2018-11-29T21:37:43.705Z,21.50
2018-11-29T21:40:18.917Z,21.40
2018-11-29T21:42:47.390Z,21.40
2018-11-29T21:45:16.000Z,21.30
2018-11-29T21:47:44.386Z,21.20
2018-11-29T21:50:12.723Z,21.20
2018-11-29T21:52:42.057Z,21.10
2018-11-29T21:55:10.417Z,21.00
2018-11-29T21:57:38.889Z,21.00
2018-11-29T22:00:13.478Z,20.90
2018-11-29T22:02:44.709Z,20.90
2018-11-29T22:05:13.462Z,21.30
2018-11-29T22:07:42.052Z,20.80
2018-11-29T22:10:10.619Z,20.70
2018-11-29T22:12:39.369Z,20.60
2018-11-29T22:15:10.460Z,20.60
2018-11-29T22:17:50.516Z,20.50
2018-11-29T22:20:19.245Z,20.40
2018-11-29T22:22:47.693Z,20.30
2018-11-29T22:25:15.938Z,20.20
2018-11-29T22:27:44.428Z,20.10
2018-11-29T22:30:12.821Z,20.00
2018-11-29T22:32:41.041Z,20.00
2018-11-29T22:35:09.665Z,19.90
2018-11-29T22:37:38.219Z,19.90
2018-11-29T22:40:07.199Z,19.80
2018-11-29T22:42:35.785Z,19.70
2018-11-29T22:45:04.376Z,20.30
2018-11-29T22:47:32.690Z,19.70
2018-11-29T22:50:02.046Z,19.70
2018-11-29T22:52:30.684Z,19.60
2018-11-29T22:54:59.498Z,19.60
2018-11-29T22:57:28.314Z,19.50
2018-11-29T22:59:56.844Z,19.50
2018-11-29T23:02:25.240Z,19.50
2018-11-29T23:04:53.810Z,19.40
2018-11-29T23:07:22.019Z,19.40
2018-11-29T23:09:50.769Z,19.40
2018-11-29T23:12:24.081Z,19.40
2018-11-29T23:14:52.784Z,19.30
2018-11-29T23:17:21.180Z,19.30
2018-11-29T23:19:49.598Z,19.30
2018-11-29T23:22:17.931Z,19.30
2018-11-29T23:24:46.461Z,19.40
2018-11-29T23:27:14.996Z,19.50
2018-11-29T23:29:43.326Z,19.60
2018-11-29T23:32:11.951Z,19.70
2018-11-29T23:34:40.203Z,19.70
2018-11-29T23:37:08.873Z,19.70
2018-11-29T23:39:37.452Z,19.80
2018-11-29T23:42:06.284Z,19.80
2018-11-29T23:44:34.673Z,19.90
2018-11-29T23:47:03.043Z,19.80
2018-11-29T23:49:31.289Z,19.90
2018-11-29T23:52:00.563Z,19.90
2018-11-29T23:54:29.318Z,19.90
2018-11-29T23:56:57.743Z,20.00
2018-11-29T23:59:26.240Z,20.00
